sensor_id;sensor_type;location;lat;lon;timestamp;temperature;humidity
20654;DHT22;21083;50.898;4.902;2023-03-14T00:01:58;11.80;99.90
20654;DHT22;21083;50.898;4.902;2023-03-14T00:04:25;11.80;99.90
20654;DHT22;21083;50.898;4.902;2023-03-14T00:06:52;11.80;99.90
20654;DHT22;21083;50.898;4.902;2023-03-14T00:09:19;11.80;99.90
20654;DHT22;21083;50.898;4.902;2023-03-14T00:11:47;11.80;99.90
20654;DHT22;21083;50.898;4.902;2023-03-14T00:14:14;11.60;99.90
20654;DHT22;21083;50.898;4.902;2023-03-14T00:16:45;11.60;99.90
20654;DHT22;21083;50.898;4.902;2023-03-14T00:19:12;11.50;99.90
20654;DHT22;21083;50.898;4.902;2023-03-14T00:21:39;11.60;99.90
20654;DHT22;21083;50.898;4.902;2023-03-14T00:24:07;11.50;99.90
20654;DHT22;21083;50.898;4.902;2023-03-14T00:26:34;11.50;99.90
20654;DHT22;21083;50.898;4.902;2023-03-14T00:29:02;11.40;99.90
20654;DHT22;21083;50.898;4.902;2023-03-14T00:31:29;11.40;99.90
20654;DHT22;21083;50.898;4.902;2023-03-14T00:33:57;11.30;99.90
20654;DHT22;21083;50.898;4.902;2023-03-14T00:36:24;11.20;99.90
20654;DHT22;21083;50.898;4.902;2023-03-14T00:38:51;11.20;99.90
20654;DHT22;21083;50.898;4.902;2023-03-14T00:41:20;11.20;99.90
20654;DHT22;21083;50.898;4.902;2023-03-14T00:43:47;11.20;99.90
20654;DHT22;21083;50.898;4.902;2023-03-14T00:46:16;11.10;99.90
20654;DHT22;21083;50.898;4.902;2023-03-14T00:48:44;11.10;99.90
20654;DHT22;21083;50.898;4.902;2023-03-14T00:51:12;11.10;99.90
20654;DHT22;21083;50.898;4.902;2023-03-14T00:53:41;11.20;99.90
20654;DHT22;21083;50.898;4.902;2023-03-14T00:56:10;11.20;99.90
20654;DHT22;21083;50.898;4.902;2023-03-14T00:58:37;11.40;99.90
20654;DHT22;21083;50.898;4.902;2023-03-14T01:01:09;11.40;99.90
20654;DHT22;21083;50.898;4.902;2023-03-14T01:03:37;11.40;99.90
20654;DHT22;21083;50.898;4.902;2023-03-14T01:06:09;11.40;99.90
20654;DHT22;21083;50.898;4.902;2023-03-14T01:08:37;11.40;99.90
20654;DHT22;21083;50.898;4.902;2023-03-14T01:11:08;11.50;99.90
20654;DHT22;21083;50.898;4.902;2023-03-14T01:13:36;11.40;99.90
20654;DHT22;21083;50.898;4.902;2023-03-14T01:16:04;11.50;99.90
20654;DHT22;21083;50.898;4.902;2023-03-14T01:18:32;11.40;99.90
20654;DHT22;21083;50.898;4.902;2023-03-14T01:21:00;11.30;99.90
20654;DHT22;21083;50.898;4.902;2023-03-14T01:23:27;11.30;99.90
20654;DHT22;21083;50.898;4.902;2023-03-14T01:25:54;11.20;99.90
20654;DHT22;21083;50.898;4.902;2023-03-14T01:28:21;11.20;99.90
20654;DHT22;21083;50.898;4.902;2023-03-14T01:30:48;11.20;99.90
20654;DHT22;21083;50.898;4.902;2023-03-14T01:33:15;11.30;99.90
20654;DHT22;21083;50.898;4.902;2023-03-14T01:35:42;11.40;99.90
20654;DHT22;21083;50.898;4.902;2023-03-14T01:38:10;11.40;99.90
20654;DHT22;21083;50.898;4.902;2023-03-14T01:40:42;11.30;99.90
20654;DHT22;21083;50.898;4.902;2023-03-14T01:43:15;11.40;99.90
20654;DHT22;21083;50.898;4.902;2023-03-14T01:46:14;11.40;99.90
20654;DHT22;21083;50.898;4.902;2023-03-14T01:48:46;11.50;99.90
20654;DHT22;21083;50.898;4.902;2023-03-14T01:51:18;11.30;99.90
20654;DHT22;21083;50.898;4.902;2023-03-14T01:53:48;11.30;99.90
20654;DHT22;21083;50.898;4.902;2023-03-14T01:56:17;11.20;99.90
20654;DHT22;21083;50.898;4.902;2023-03-14T01:58:47;11.20;99.90
20654;DHT22;21083;50.898;4.902;2023-03-14T02:01:18;11.10;99.90
20654;DHT22;21083;50.898;4.902;2023-03-14T02:03:48;11.10;99.90
20654;DHT22;21083;50.898;4.902;2023-03-14T02:06:20;11.10;99.90
20654;DHT22;21083;50.898;4.902;2023-03-14T02:08:50;11.00;99.90
20654;DHT22;21083;50.898;4.902;2023-03-14T02:11:17;10.90;99.90
20654;DHT22;21083;50.898;4.902;2023-03-14T02:13:46;10.90;99.90
20654;DHT22;21083;50.898;4.902;2023-03-14T02:16:13;10.80;99.90
20654;DHT22;21083;50.898;4.902;2023-03-14T02:18:41;10.80;99.90
20654;DHT22;21083;50.898;4.902;2023-03-14T02:21:13;10.90;99.90
20654;DHT22;21083;50.898;4.902;2023-03-14T02:23:46;10.70;99.90
20654;DHT22;21083;50.898;4.902;2023-03-14T02:26:20;10.50;99.90
20654;DHT22;21083;50.898;4.902;2023-03-14T02:28:51;10.40;99.90
20654;DHT22;21083;50.898;4.902;2023-03-14T02:31:19;10.30;99.90
20654;DHT22;21083;50.898;4.902;2023-03-14T02:33:48;10.20;99.90
20654;DHT22;21083;50.898;4.902;2023-03-14T02:36:15;10.20;99.90
20654;DHT22;21083;50.898;4.902;2023-03-14T02:38:47;10.20;99.90
20654;DHT22;21083;50.898;4.902;2023-03-14T02:41:17;10.10;99.90
20654;DHT22;21083;50.898;4.902;2023-03-14T02:43:44;10.10;99.90
20654;DHT22;21083;50.898;4.902;2023-03-14T02:46:14;10.00;99.90
20654;DHT22;21083;50.898;4.902;2023-03-14T02:48:45;9.90;99.90
20654;DHT22;21083;50.898;4.902;2023-03-14T02:51:14;10.00;99.90
20654;DHT22;21083;50.898;4.902;2023-03-14T02:53:41;10.00;99.90
20654;DHT22;21083;50.898;4.902;2023-03-14T02:56:09;10.00;99.90
20654;DHT22;21083;50.898;4.902;2023-03-14T02:58:36;10.00;99.90
20654;DHT22;21083;50.898;4.902;2023-03-14T03:01:04;9.90;99.90
20654;DHT22;21083;50.898;4.902;2023-03-14T03:03:33;9.80;99.90
20654;DHT22;21083;50.898;4.902;2023-03-14T03:06:00;9.90;99.90
20654;DHT22;21083;50.898;4.902;2023-03-14T03:08:27;9.80;99.90
20654;DHT22;21083;50.898;4.902;2023-03-14T03:10:57;9.90;99.90
20654;DHT22;21083;50.898;4.902;2023-03-14T03:13:24;9.80;99.90
20654;DHT22;21083;50.898;4.902;2023-03-14T03:15:52;9.90;99.90
20654;DHT22;21083;50.898;4.902;2023-03-14T03:18:19;10.00;99.90
20654;DHT22;21083;50.898;4.902;2023-03-14T03:20:48;10.10;99.90
20654;DHT22;21083;50.898;4.902;2023-03-14T03:23:15;10.10;99.90
20654;DHT22;21083;50.898;4.902;2023-03-14T03:25:42;10.20;99.90
20654;DHT22;21083;50.898;4.902;2023-03-14T03:28:09;10.30;99.90
20654;DHT22;21083;50.898;4.902;2023-03-14T03:30:40;10.20;99.90
20654;DHT22;21083;50.898;4.902;2023-03-14T03:33:07;10.20;99.90
20654;DHT22;21083;50.898;4.902;2023-03-14T03:35:35;10.20;99.90
20654;DHT22;21083;50.898;4.902;2023-03-14T03:38:09;10.30;99.90
20654;DHT22;21083;50.898;4.902;2023-03-14T03:40:37;10.30;99.90
20654;DHT22;21083;50.898;4.902;2023-03-14T03:43:04;10.30;99.90
20654;DHT22;21083;50.898;4.902;2023-03-14T03:45:31;10.40;99.90
20654;DHT22;21083;50.898;4.902;2023-03-14T03:47:58;10.30;99.90
20654;DHT22;21083;50.898;4.902;2023-03-14T03:50:25;10.30;99.90
20654;DHT22;21083;50.898;4.902;2023-03-14T03:52:52;10.20;99.90
20654;DHT22;21083;50.898;4.902;2023-03-14T03:55:20;10.30;99.90
20654;DHT22;21083;50.898;4.902;2023-03-14T03:57:47;10.30;99.90
20654;DHT22;21083;50.898;4.902;2023-03-14T04:00:14;10.40;99.90
20654;DHT22;21083;50.898;4.902;2023-03-14T04:02:41;10.30;99.90
20654;DHT22;21083;50.898;4.902;2023-03-14T04:05:08;10.30;99.90
20654;DHT22;21083;50.898;4.902;2023-03-14T04:07:35;10.30;99.90
20654;DHT22;21083;50.898;4.902;2023-03-14T04:10:03;10.30;99.90
20654;DHT22;21083;50.898;4.902;2023-03-14T04:12:32;10.30;99.90
20654;DHT22;21083;50.898;4.902;2023-03-14T04:14:59;10.30;99.90
20654;DHT22;21083;50.898;4.902;2023-03-14T04:17:26;10.20;99.90
20654;DHT22;21083;50.898;4.902;2023-03-14T04:19:53;10.30;99.90
20654;DHT22;21083;50.898;4.902;2023-03-14T04:22:20;10.30;99.90
20654;DHT22;21083;50.898;4.902;2023-03-14T04:24:47;10.30;99.90
20654;DHT22;21083;50.898;4.902;2023-03-14T04:27:14;10.30;99.90
20654;DHT22;21083;50.898;4.902;2023-03-14T04:29:42;10.20;99.90
20654;DHT22;21083;50.898;4.902;2023-03-14T04:32:09;10.30;99.90
20654;DHT22;21083;50.898;4.902;2023-03-14T04:34:37;10.30;99.90
20654;DHT22;21083;50.898;4.902;2023-03-14T04:37:04;10.30;99.90
20654;DHT22;21083;50.898;4.902;2023-03-14T04:39:31;10.40;99.90
20654;DHT22;21083;50.898;4.902;2023-03-14T04:41:58;10.40;99.90
20654;DHT22;21083;50.898;4.902;2023-03-14T04:44:25;10.40;99.90
20654;DHT22;21083;50.898;4.902;2023-03-14T04:46:53;10.40;99.90
20654;DHT22;21083;50.898;4.902;2023-03-14T04:49:20;10.40;99.90
20654;DHT22;21083;50.898;4.902;2023-03-14T04:51:47;10.40;99.90
20654;DHT22;21083;50.898;4.902;2023-03-14T04:54:16;10.30;99.90
20654;DHT22;21083;50.898;4.902;2023-03-14T04:56:43;10.30;99.90
20654;DHT22;21083;50.898;4.902;2023-03-14T04:59:10;10.30;99.90
20654;DHT22;21083;50.898;4.902;2023-03-14T05:01:37;10.40;99.90
20654;DHT22;21083;50.898;4.902;2023-03-14T05:04:05;10.40;99.90
20654;DHT22;21083;50.898;4.902;2023-03-14T05:06:32;10.40;99.90
20654;DHT22;21083;50.898;4.902;2023-03-14T05:09:00;10.40;99.90
20654;DHT22;21083;50.898;4.902;2023-03-14T05:11:28;10.30;99.90
20654;DHT22;21083;50.898;4.902;2023-03-14T05:13:55;10.30;99.90
20654;DHT22;21083;50.898;4.902;2023-03-14T05:16:22;10.30;99.90
20654;DHT22;21083;50.898;4.902;2023-03-14T05:18:49;10.20;99.90
20654;DHT22;21083;50.898;4.902;2023-03-14T05:21:18;10.20;99.90
20654;DHT22;21083;50.898;4.902;2023-03-14T05:23:45;10.20;99.90
20654;DHT22;21083;50.898;4.902;2023-03-14T05:26:12;10.20;99.90
20654;DHT22;21083;50.898;4.902;2023-03-14T05:28:39;10.30;99.90
20654;DHT22;21083;50.898;4.902;2023-03-14T05:31:09;10.30;99.90
20654;DHT22;21083;50.898;4.902;2023-03-14T05:33:36;10.30;99.90
20654;DHT22;21083;50.898;4.902;2023-03-14T05:36:03;10.30;99.90
20654;DHT22;21083;50.898;4.902;2023-03-14T05:38:32;10.30;99.90
20654;DHT22;21083;50.898;4.902;2023-03-14T05:40:59;10.30;99.90
20654;DHT22;21083;50.898;4.902;2023-03-14T05:43:26;10.30;99.90
20654;DHT22;21083;50.898;4.902;2023-03-14T05:45:53;10.30;99.90
20654;DHT22;21083;50.898;4.902;2023-03-14T05:48:19;10.20;99.90
20654;DHT22;21083;50.898;4.902;2023-03-14T05:50:47;10.30;99.90
20654;DHT22;21083;50.898;4.902;2023-03-14T05:53:14;10.30;99.90
20654;DHT22;21083;50.898;4.902;2023-03-14T05:55:42;10.30;99.90
20654;DHT22;21083;50.898;4.902;2023-03-14T05:58:09;10.20;99.90
20654;DHT22;21083;50.898;4.902;2023-03-14T06:00:36;10.20;99.90
20654;DHT22;21083;50.898;4.902;2023-03-14T06:03:03;10.20;99.90
20654;DHT22;21083;50.898;4.902;2023-03-14T06:05:30;10.30;99.90
20654;DHT22;21083;50.898;4.902;2023-03-14T06:07:57;10.20;99.90
20654;DHT22;21083;50.898;4.902;2023-03-14T06:10:24;10.20;99.90
20654;DHT22;21083;50.898;4.902;2023-03-14T06:12:52;10.20;99.90
20654;DHT22;21083;50.898;4.902;2023-03-14T06:15:19;10.20;99.90
20654;DHT22;21083;50.898;4.902;2023-03-14T06:17:46;10.20;99.90
20654;DHT22;21083;50.898;4.902;2023-03-14T06:20:14;10.20;99.90
20654;DHT22;21083;50.898;4.902;2023-03-14T06:22:41;10.20;99.90
20654;DHT22;21083;50.898;4.902;2023-03-14T06:25:08;10.30;99.90
20654;DHT22;21083;50.898;4.902;2023-03-14T06:27:35;10.30;99.90
20654;DHT22;21083;50.898;4.902;2023-03-14T06:30:05;10.30;99.90
20654;DHT22;21083;50.898;4.902;2023-03-14T06:32:32;10.40;99.90
20654;DHT22;21083;50.898;4.902;2023-03-14T06:34:59;10.40;99.90
20654;DHT22;21083;50.898;4.902;2023-03-14T06:37:26;10.40;99.90
20654;DHT22;21083;50.898;4.902;2023-03-14T06:39:54;10.50;99.90
20654;DHT22;21083;50.898;4.902;2023-03-14T06:42:21;10.50;99.90
20654;DHT22;21083;50.898;4.902;2023-03-14T06:44:48;10.50;99.90
20654;DHT22;21083;50.898;4.902;2023-03-14T06:47:16;10.50;99.90
20654;DHT22;21083;50.898;4.902;2023-03-14T06:49:43;10.50;99.90
20654;DHT22;21083;50.898;4.902;2023-03-14T06:52:10;10.50;99.90
20654;DHT22;21083;50.898;4.902;2023-03-14T06:54:37;10.50;99.90
20654;DHT22;21083;50.898;4.902;2023-03-14T06:57:04;10.50;99.90
20654;DHT22;21083;50.898;4.902;2023-03-14T06:59:31;10.40;99.90
20654;DHT22;21083;50.898;4.902;2023-03-14T07:01:58;10.50;99.90
20654;DHT22;21083;50.898;4.902;2023-03-14T07:04:26;10.40;99.90
20654;DHT22;21083;50.898;4.902;2023-03-14T07:06:54;10.40;99.90
20654;DHT22;21083;50.898;4.902;2023-03-14T07:09:21;10.40;99.90
20654;DHT22;21083;50.898;4.902;2023-03-14T07:11:48;10.40;99.90
20654;DHT22;21083;50.898;4.902;2023-03-14T07:14:15;10.40;99.90
20654;DHT22;21083;50.898;4.902;2023-03-14T07:16:42;10.40;99.90
20654;DHT22;21083;50.898;4.902;2023-03-14T07:19:10;10.40;99.90
20654;DHT22;21083;50.898;4.902;2023-03-14T07:21:39;10.40;99.90
20654;DHT22;21083;50.898;4.902;2023-03-14T07:24:06;10.30;99.90
20654;DHT22;21083;50.898;4.902;2023-03-14T07:26:33;9.90;99.90
20654;DHT22;21083;50.898;4.902;2023-03-14T07:29:00;9.50;99.90
20654;DHT22;21083;50.898;4.902;2023-03-14T07:31:28;9.30;99.90
20654;DHT22;21083;50.898;4.902;2023-03-14T07:33:55;9.30;99.90
20654;DHT22;21083;50.898;4.902;2023-03-14T07:36:22;9.10;99.90
20654;DHT22;21083;50.898;4.902;2023-03-14T07:38:51;8.80;99.90
20654;DHT22;21083;50.898;4.902;2023-03-14T07:41:18;8.40;99.90
20654;DHT22;21083;50.898;4.902;2023-03-14T07:43:46;8.20;99.90
20654;DHT22;21083;50.898;4.902;2023-03-14T07:46:13;8.10;99.90
20654;DHT22;21083;50.898;4.902;2023-03-14T07:48:40;8.10;99.90
20654;DHT22;21083;50.898;4.902;2023-03-14T07:51:07;8.10;99.90
20654;DHT22;21083;50.898;4.902;2023-03-14T07:53:34;8.00;99.90
20654;DHT22;21083;50.898;4.902;2023-03-14T07:56:03;7.90;99.90
20654;DHT22;21083;50.898;4.902;2023-03-14T07:58:30;7.90;99.90
20654;DHT22;21083;50.898;4.902;2023-03-14T08:00:58;7.70;99.90
20654;DHT22;21083;50.898;4.902;2023-03-14T08:03:25;7.70;99.90
20654;DHT22;21083;50.898;4.902;2023-03-14T08:05:52;7.70;99.90
20654;DHT22;21083;50.898;4.902;2023-03-14T08:08:19;7.70;99.90
20654;DHT22;21083;50.898;4.902;2023-03-14T08:10:46;7.60;99.90
20654;DHT22;21083;50.898;4.902;2023-03-14T08:13:15;7.60;99.90
20654;DHT22;21083;50.898;4.902;2023-03-14T08:15:42;7.80;99.90
20654;DHT22;21083;50.898;4.902;2023-03-14T08:18:09;7.80;99.90
20654;DHT22;21083;50.898;4.902;2023-03-14T08:20:36;7.70;99.90
20654;DHT22;21083;50.898;4.902;2023-03-14T08:23:03;7.70;99.90
20654;DHT22;21083;50.898;4.902;2023-03-14T08:25:30;7.90;99.90
20654;DHT22;21083;50.898;4.902;2023-03-14T08:27:57;7.90;99.90
20654;DHT22;21083;50.898;4.902;2023-03-14T08:30:27;7.80;99.90
20654;DHT22;21083;50.898;4.902;2023-03-14T08:32:56;7.80;99.90
20654;DHT22;21083;50.898;4.902;2023-03-14T08:35:23;7.80;99.90
20654;DHT22;21083;50.898;4.902;2023-03-14T08:37:50;7.90;99.90
20654;DHT22;21083;50.898;4.902;2023-03-14T08:40:19;7.80;99.90
20654;DHT22;21083;50.898;4.902;2023-03-14T08:42:46;7.80;99.90
20654;DHT22;21083;50.898;4.902;2023-03-14T08:45:15;7.80;99.90
20654;DHT22;21083;50.898;4.902;2023-03-14T08:47:44;7.80;99.90
20654;DHT22;21083;50.898;4.902;2023-03-14T08:50:12;7.70;99.90
20654;DHT22;21083;50.898;4.902;2023-03-14T08:52:39;7.70;99.90
20654;DHT22;21083;50.898;4.902;2023-03-14T08:55:08;7.60;99.90
20654;DHT22;21083;50.898;4.902;2023-03-14T08:57:35;7.60;99.90
20654;DHT22;21083;50.898;4.902;2023-03-14T09:00:04;7.70;99.90
20654;DHT22;21083;50.898;4.902;2023-03-14T09:02:36;7.60;99.90
20654;DHT22;21083;50.898;4.902;2023-03-14T09:05:05;7.60;99.90
20654;DHT22;21083;50.898;4.902;2023-03-14T09:07:32;7.60;99.90
20654;DHT22;21083;50.898;4.902;2023-03-14T09:09:59;7.60;99.90
20654;DHT22;21083;50.898;4.902;2023-03-14T09:12:27;7.70;99.90
20654;DHT22;21083;50.898;4.902;2023-03-14T09:14:54;7.70;99.90
20654;DHT22;21083;50.898;4.902;2023-03-14T09:17:21;7.60;99.90
20654;DHT22;21083;50.898;4.902;2023-03-14T09:19:48;7.70;99.90
20654;DHT22;21083;50.898;4.902;2023-03-14T09:22:16;7.80;99.90
20654;DHT22;21083;50.898;4.902;2023-03-14T09:24:43;7.90;99.90
20654;DHT22;21083;50.898;4.902;2023-03-14T09:27:10;7.90;99.90
20654;DHT22;21083;50.898;4.902;2023-03-14T09:29:37;7.90;99.90
20654;DHT22;21083;50.898;4.902;2023-03-14T09:32:04;7.90;99.90
20654;DHT22;21083;50.898;4.902;2023-03-14T09:34:31;8.00;99.90
20654;DHT22;21083;50.898;4.902;2023-03-14T09:36:59;8.00;99.90
20654;DHT22;21083;50.898;4.902;2023-03-14T09:39:28;7.90;99.90
20654;DHT22;21083;50.898;4.902;2023-03-14T09:41:56;7.90;99.90
20654;DHT22;21083;50.898;4.902;2023-03-14T09:44:28;7.80;99.90
20654;DHT22;21083;50.898;4.902;2023-03-14T09:46:58;7.70;99.90
20654;DHT22;21083;50.898;4.902;2023-03-14T09:49:29;7.60;99.90
20654;DHT22;21083;50.898;4.902;2023-03-14T09:51:59;7.50;99.90
20654;DHT22;21083;50.898;4.902;2023-03-14T09:54:32;7.50;99.90
20654;DHT22;21083;50.898;4.902;2023-03-14T09:57:01;7.50;99.90
20654;DHT22;21083;50.898;4.902;2023-03-14T09:59:29;7.40;99.90
20654;DHT22;21083;50.898;4.902;2023-03-14T10:01:58;7.20;99.90
20654;DHT22;21083;50.898;4.902;2023-03-14T10:04:28;7.20;99.90
20654;DHT22;21083;50.898;4.902;2023-03-14T10:06:55;7.20;99.90
20654;DHT22;21083;50.898;4.902;2023-03-14T10:09:23;7.20;99.90
20654;DHT22;21083;50.898;4.902;2023-03-14T10:11:57;7.30;99.90
20654;DHT22;21083;50.898;4.902;2023-03-14T10:14:31;7.40;99.90
20654;DHT22;21083;50.898;4.902;2023-03-14T10:17:06;7.40;99.90
20654;DHT22;21083;50.898;4.902;2023-03-14T10:19:35;7.40;99.90
20654;DHT22;21083;50.898;4.902;2023-03-14T10:22:03;7.40;99.90
20654;DHT22;21083;50.898;4.902;2023-03-14T10:24:32;7.40;99.90
20654;DHT22;21083;50.898;4.902;2023-03-14T10:27:02;7.50;99.90
20654;DHT22;21083;50.898;4.902;2023-03-14T10:29:30;7.50;99.90
20654;DHT22;21083;50.898;4.902;2023-03-14T10:31:59;7.30;99.90
20654;DHT22;21083;50.898;4.902;2023-03-14T10:34:29;7.30;99.90
20654;DHT22;21083;50.898;4.902;2023-03-14T10:36:58;7.10;99.90
20654;DHT22;21083;50.898;4.902;2023-03-14T10:39:29;7.10;99.90
20654;DHT22;21083;50.898;4.902;2023-03-14T10:42:05;7.00;99.90
20654;DHT22;21083;50.898;4.902;2023-03-14T10:44:34;7.00;99.90
20654;DHT22;21083;50.898;4.902;2023-03-14T10:47:03;7.00;99.90
20654;DHT22;21083;50.898;4.902;2023-03-14T10:49:32;6.90;99.90
20654;DHT22;21083;50.898;4.902;2023-03-14T10:52:14;6.80;99.90
20654;DHT22;21083;50.898;4.902;2023-03-14T10:54:47;6.80;99.90
20654;DHT22;21083;50.898;4.902;2023-03-14T10:57:16;6.80;99.90
20654;DHT22;21083;50.898;4.902;2023-03-14T10:59:45;6.60;99.90
20654;DHT22;21083;50.898;4.902;2023-03-14T11:02:43;6.70;99.90
20654;DHT22;21083;50.898;4.902;2023-03-14T11:05:21;6.60;99.90
20654;DHT22;21083;50.898;4.902;2023-03-14T11:07:52;6.50;99.90
20654;DHT22;21083;50.898;4.902;2023-03-14T11:10:24;6.50;99.90
20654;DHT22;21083;50.898;4.902;2023-03-14T11:13:03;6.50;99.90
20654;DHT22;21083;50.898;4.902;2023-03-14T11:15:40;6.50;99.90
20654;DHT22;21083;50.898;4.902;2023-03-14T11:18:58;6.40;99.90
20654;DHT22;21083;50.898;4.902;2023-03-14T11:21:30;6.60;99.90
20654;DHT22;21083;50.898;4.902;2023-03-14T11:24:17;6.50;99.90
20654;DHT22;21083;50.898;4.902;2023-03-14T11:26:51;6.50;99.90
20654;DHT22;21083;50.898;4.902;2023-03-14T11:29:28;6.40;99.90
20654;DHT22;21083;50.898;4.902;2023-03-14T11:32:02;6.30;99.90
20654;DHT22;21083;50.898;4.902;2023-03-14T11:34:38;6.30;99.90
20654;DHT22;21083;50.898;4.902;2023-03-14T11:37:11;6.30;99.90
20654;DHT22;21083;50.898;4.902;2023-03-14T11:39:41;6.20;99.90
20654;DHT22;21083;50.898;4.902;2023-03-14T11:42:12;6.20;99.90
20654;DHT22;21083;50.898;4.902;2023-03-14T11:44:46;6.10;99.90
20654;DHT22;21083;50.898;4.902;2023-03-14T11:47:17;6.20;99.90
20654;DHT22;21083;50.898;4.902;2023-03-14T11:49:48;6.50;99.90
20654;DHT22;21083;50.898;4.902;2023-03-14T11:52:21;6.70;99.90
20654;DHT22;21083;50.898;4.902;2023-03-14T11:54:52;6.80;99.90
20654;DHT22;21083;50.898;4.902;2023-03-14T11:57:21;7.10;99.90
20654;DHT22;21083;50.898;4.902;2023-03-14T11:59:56;7.20;99.90
20654;DHT22;21083;50.898;4.902;2023-03-14T12:02:35;7.50;99.90
20654;DHT22;21083;50.898;4.902;2023-03-14T12:05:37;7.70;99.90
20654;DHT22;21083;50.898;4.902;2023-03-14T12:08:26;7.70;99.90
20654;DHT22;21083;50.898;4.902;2023-03-14T12:11:01;7.80;99.90
20654;DHT22;21083;50.898;4.902;2023-03-14T12:13:32;7.70;99.90
20654;DHT22;21083;50.898;4.902;2023-03-14T12:16:05;7.70;99.90
20654;DHT22;21083;50.898;4.902;2023-03-14T12:18:35;7.60;99.90
20654;DHT22;21083;50.898;4.902;2023-03-14T12:21:06;7.60;99.90
20654;DHT22;21083;50.898;4.902;2023-03-14T12:23:41;7.50;99.90
20654;DHT22;21083;50.898;4.902;2023-03-14T12:26:16;7.30;99.90
20654;DHT22;21083;50.898;4.902;2023-03-14T12:28:49;7.30;99.90
20654;DHT22;21083;50.898;4.902;2023-03-14T12:31:43;7.10;99.90
20654;DHT22;21083;50.898;4.902;2023-03-14T12:34:31;6.90;99.90
20654;DHT22;21083;50.898;4.902;2023-03-14T12:37:09;6.90;99.90
20654;DHT22;21083;50.898;4.902;2023-03-14T12:39:46;6.80;99.90
20654;DHT22;21083;50.898;4.902;2023-03-14T12:42:20;6.80;99.90
20654;DHT22;21083;50.898;4.902;2023-03-14T12:44:49;6.70;99.90
20654;DHT22;21083;50.898;4.902;2023-03-14T12:47:42;6.70;99.90
20654;DHT22;21083;50.898;4.902;2023-03-14T12:50:16;6.80;99.90
20654;DHT22;21083;50.898;4.902;2023-03-14T12:52:56;6.80;99.90
20654;DHT22;21083;50.898;4.902;2023-03-14T12:55:32;6.90;99.90
20654;DHT22;21083;50.898;4.902;2023-03-14T12:58:06;6.80;99.90
20654;DHT22;21083;50.898;4.902;2023-03-14T13:00:38;6.80;99.90
20654;DHT22;21083;50.898;4.902;2023-03-14T13:03:18;6.90;99.90
20654;DHT22;21083;50.898;4.902;2023-03-14T13:05:55;6.70;99.90
20654;DHT22;21083;50.898;4.902;2023-03-14T13:08:36;6.60;99.90
20654;DHT22;21083;50.898;4.902;2023-03-14T13:11:05;6.60;99.90
20654;DHT22;21083;50.898;4.902;2023-03-14T13:13:35;6.50;99.90
20654;DHT22;21083;50.898;4.902;2023-03-14T13:16:03;6.60;99.90
20654;DHT22;21083;50.898;4.902;2023-03-14T13:18:34;6.70;99.90
20654;DHT22;21083;50.898;4.902;2023-03-14T13:21:05;6.60;99.90
20654;DHT22;21083;50.898;4.902;2023-03-14T13:23:35;6.60;99.90
20654;DHT22;21083;50.898;4.902;2023-03-14T13:26:05;6.50;99.90
20654;DHT22;21083;50.898;4.902;2023-03-14T13:28:36;6.70;99.90
20654;DHT22;21083;50.898;4.902;2023-03-14T13:31:03;6.80;99.90
20654;DHT22;21083;50.898;4.902;2023-03-14T13:33:33;6.80;99.90
20654;DHT22;21083;50.898;4.902;2023-03-14T13:36:02;6.70;99.90
20654;DHT22;21083;50.898;4.902;2023-03-14T13:38:31;6.50;99.90
20654;DHT22;21083;50.898;4.902;2023-03-14T13:41:00;6.30;99.90
20654;DHT22;21083;50.898;4.902;2023-03-14T13:43:31;6.40;99.90
20654;DHT22;21083;50.898;4.902;2023-03-14T13:46:03;6.20;99.90
20654;DHT22;21083;50.898;4.902;2023-03-14T13:48:33;6.00;99.90
20654;DHT22;21083;50.898;4.902;2023-03-14T13:51:04;6.10;99.90
20654;DHT22;21083;50.898;4.902;2023-03-14T13:53:42;6.20;99.90
20654;DHT22;21083;50.898;4.902;2023-03-14T13:56:10;6.10;99.90
20654;DHT22;21083;50.898;4.902;2023-03-14T13:58:39;6.00;99.90
20654;DHT22;21083;50.898;4.902;2023-03-14T14:01:13;5.90;99.90
20654;DHT22;21083;50.898;4.902;2023-03-14T14:03:43;5.90;99.90
20654;DHT22;21083;50.898;4.902;2023-03-14T14:06:22;6.10;99.90
20654;DHT22;21083;50.898;4.902;2023-03-14T14:08:50;6.30;99.90
20654;DHT22;21083;50.898;4.902;2023-03-14T14:11:22;6.30;99.90
20654;DHT22;21083;50.898;4.902;2023-03-14T14:13:50;6.30;99.90
20654;DHT22;21083;50.898;4.902;2023-03-14T14:16:21;6.50;99.90
20654;DHT22;21083;50.898;4.902;2023-03-14T14:18:52;6.50;99.90
20654;DHT22;21083;50.898;4.902;2023-03-14T14:21:20;6.50;99.90
20654;DHT22;21083;50.898;4.902;2023-03-14T14:23:48;6.60;99.90
20654;DHT22;21083;50.898;4.902;2023-03-14T14:26:16;6.70;99.90
20654;DHT22;21083;50.898;4.902;2023-03-14T14:28:45;6.80;99.90
20654;DHT22;21083;50.898;4.902;2023-03-14T14:31:20;6.70;99.90
20654;DHT22;21083;50.898;4.902;2023-03-14T14:33:59;6.70;99.90
20654;DHT22;21083;50.898;4.902;2023-03-14T14:36:29;6.90;99.90
20654;DHT22;21083;50.898;4.902;2023-03-14T14:38:59;6.80;99.90
20654;DHT22;21083;50.898;4.902;2023-03-14T14:41:28;6.80;99.90
20654;DHT22;21083;50.898;4.902;2023-03-14T14:43:57;6.80;99.90
20654;DHT22;21083;50.898;4.902;2023-03-14T14:46:27;6.60;99.90
20654;DHT22;21083;50.898;4.902;2023-03-14T14:48:56;6.70;99.90
20654;DHT22;21083;50.898;4.902;2023-03-14T14:51:26;6.50;99.90
20654;DHT22;21083;50.898;4.902;2023-03-14T14:54:04;6.50;99.90
20654;DHT22;21083;50.898;4.902;2023-03-14T14:56:36;6.60;99.90
20654;DHT22;21083;50.898;4.902;2023-03-14T14:59:05;6.70;99.90
20654;DHT22;21083;50.898;4.902;2023-03-14T15:01:34;6.80;99.90
20654;DHT22;21083;50.898;4.902;2023-03-14T15:04:04;6.70;99.90
20654;DHT22;21083;50.898;4.902;2023-03-14T15:06:37;6.70;99.90
20654;DHT22;21083;50.898;4.902;2023-03-14T15:09:05;6.70;99.90
20654;DHT22;21083;50.898;4.902;2023-03-14T15:11:32;6.60;99.90
20654;DHT22;21083;50.898;4.902;2023-03-14T15:13:59;6.80;99.90
20654;DHT22;21083;50.898;4.902;2023-03-14T15:16:28;7.00;99.90
20654;DHT22;21083;50.898;4.902;2023-03-14T15:18:58;7.10;99.90
20654;DHT22;21083;50.898;4.902;2023-03-14T15:21:27;7.10;99.90
20654;DHT22;21083;50.898;4.902;2023-03-14T15:23:55;7.10;99.90
20654;DHT22;21083;50.898;4.902;2023-03-14T15:26:26;6.90;99.90
20654;DHT22;21083;50.898;4.902;2023-03-14T15:28:54;6.80;99.90
20654;DHT22;21083;50.898;4.902;2023-03-14T15:31:21;6.80;99.90
20654;DHT22;21083;50.898;4.902;2023-03-14T15:33:48;6.80;99.90
20654;DHT22;21083;50.898;4.902;2023-03-14T15:36:21;6.70;99.90
20654;DHT22;21083;50.898;4.902;2023-03-14T15:38:49;6.60;99.90
20654;DHT22;21083;50.898;4.902;2023-03-14T15:41:18;6.70;99.90
20654;DHT22;21083;50.898;4.902;2023-03-14T15:43:45;6.80;99.90
20654;DHT22;21083;50.898;4.902;2023-03-14T15:46:13;7.00;99.90
20654;DHT22;21083;50.898;4.902;2023-03-14T15:48:43;7.00;99.90
20654;DHT22;21083;50.898;4.902;2023-03-14T15:51:10;7.10;99.90
20654;DHT22;21083;50.898;4.902;2023-03-14T15:53:37;7.20;99.90
20654;DHT22;21083;50.898;4.902;2023-03-14T15:56:05;7.10;99.90